sensor_id;sensor_type;location;lat;lon;timestamp;P1;durP1;ratioP1;P2;durP2;ratioP2
63189;SDS011;49286;44.460;26.114;2023-04-16T00:00:38;15.15;;;10.73;;
63189;SDS011;49286;44.460;26.114;2023-04-16T00:03:04;16.90;;;11.38;;
63189;SDS011;49286;44.460;26.114;2023-04-16T00:05:29;15.82;;;11.27;;
63189;SDS011;49286;44.460;26.114;2023-04-16T00:07:55;13.23;;;9.23;;
63189;SDS011;49286;44.460;26.114;2023-04-16T00:10:20;13.98;;;8.48;;
63189;SDS011;49286;44.460;26.114;2023-04-16T00:12:46;17.42;;;11.38;;
63189;SDS011;49286;44.460;26.114;2023-04-16T00:15:11;15.38;;;8.70;;
63189;SDS011;49286;44.460;26.114;2023-04-16T00:17:37;20.73;;;10.55;;
63189;SDS011;49286;44.460;26.114;2023-04-16T00:20:02;20.27;;;10.13;;
63189;SDS011;49286;44.460;26.114;2023-04-16T00:22:28;19.88;;;9.27;;
63189;SDS011;49286;44.460;26.114;2023-04-16T00:24:53;19.55;;;9.68;;
63189;SDS011;49286;44.460;26.114;2023-04-16T00:27:19;14.13;;;8.55;;
63189;SDS011;49286;44.460;26.114;2023-04-16T00:29:44;14.38;;;9.60;;
63189;SDS011;49286;44.460;26.114;2023-04-16T00:32:10;15.02;;;9.45;;
63189;SDS011;49286;44.460;26.114;2023-04-16T00:34:35;17.48;;;8.60;;
63189;SDS011;49286;44.460;26.114;2023-04-16T00:37:01;16.65;;;9.82;;
63189;SDS011;49286;44.460;26.114;2023-04-16T00:39:26;17.42;;;8.90;;
63189;SDS011;49286;44.460;26.114;2023-04-16T00:41:52;17.38;;;9.90;;
63189;SDS011;49286;44.460;26.114;2023-04-16T00:44:17;12.70;;;8.90;;
63189;SDS011;49286;44.460;26.114;2023-04-16T00:46:43;12.50;;;8.98;;
63189;SDS011;49286;44.460;26.114;2023-04-16T00:49:09;15.77;;;9.70;;
63189;SDS011;49286;44.460;26.114;2023-04-16T00:51:35;15.93;;;9.90;;
63189;SDS011;49286;44.460;26.114;2023-04-16T00:54:01;17.75;;;9.57;;
63189;SDS011;49286;44.460;26.114;2023-04-16T00:56:27;16.98;;;8.95;;
63189;SDS011;49286;44.460;26.114;2023-04-16T00:58:53;12.82;;;8.48;;
63189;SDS011;49286;44.460;26.114;2023-04-16T01:01:20;16.45;;;11.30;;
63189;SDS011;49286;44.460;26.114;2023-04-16T01:03:46;18.80;;;11.73;;
63189;SDS011;49286;44.460;26.114;2023-04-16T01:06:14;20.35;;;11.93;;
63189;SDS011;49286;44.460;26.114;2023-04-16T01:08:41;18.83;;;10.38;;
63189;SDS011;49286;44.460;26.114;2023-04-16T01:11:07;23.60;;;11.55;;
63189;SDS011;49286;44.460;26.114;2023-04-16T01:13:33;16.23;;;10.63;;
63189;SDS011;49286;44.460;26.114;2023-04-16T01:16:03;19.85;;;11.82;;
63189;SDS011;49286;44.460;26.114;2023-04-16T01:18:32;19.25;;;12.85;;
63189;SDS011;49286;44.460;26.114;2023-04-16T01:20:58;16.55;;;11.25;;
63189;SDS011;49286;44.460;26.114;2023-04-16T01:23:24;17.27;;;12.18;;
63189;SDS011;49286;44.460;26.114;2023-04-16T01:25:49;18.15;;;10.13;;
63189;SDS011;49286;44.460;26.114;2023-04-16T01:28:14;16.10;;;12.60;;
63189;SDS011;49286;44.460;26.114;2023-04-16T01:30:40;18.88;;;13.02;;
63189;SDS011;49286;44.460;26.114;2023-04-16T01:33:06;16.00;;;6.72;;
63189;SDS011;49286;44.460;26.114;2023-04-16T01:35:32;19.02;;;11.98;;
63189;SDS011;49286;44.460;26.114;2023-04-16T01:37:58;16.58;;;13.07;;
63189;SDS011;49286;44.460;26.114;2023-04-16T01:40:23;23.15;;;12.60;;
63189;SDS011;49286;44.460;26.114;2023-04-16T01:42:49;17.67;;;11.85;;
63189;SDS011;49286;44.460;26.114;2023-04-16T01:45:15;17.70;;;12.65;;
63189;SDS011;49286;44.460;26.114;2023-04-16T01:47:41;26.02;;;12.55;;
63189;SDS011;49286;44.460;26.114;2023-04-16T01:50:06;16.17;;;12.02;;
63189;SDS011;49286;44.460;26.114;2023-04-16T01:52:33;14.68;;;10.65;;
63189;SDS011;49286;44.460;26.114;2023-04-16T01:54:59;20.25;;;12.05;;
63189;SDS011;49286;44.460;26.114;2023-04-16T01:57:24;21.05;;;12.70;;
63189;SDS011;49286;44.460;26.114;2023-04-16T01:59:50;15.35;;;12.80;;
63189;SDS011;49286;44.460;26.114;2023-04-16T02:02:15;22.70;;;12.68;;
63189;SDS011;49286;44.460;26.114;2023-04-16T02:04:41;18.80;;;12.88;;
63189;SDS011;49286;44.460;26.114;2023-04-16T02:07:11;20.55;;;13.27;;
63189;SDS011;49286;44.460;26.114;2023-04-16T02:09:37;19.15;;;12.57;;
63189;SDS011;49286;44.460;26.114;2023-04-16T02:12:04;17.65;;;12.88;;
63189;SDS011;49286;44.460;26.114;2023-04-16T02:14:30;21.10;;;11.88;;
63189;SDS011;49286;44.460;26.114;2023-04-16T02:16:57;24.15;;;14.38;;
63189;SDS011;49286;44.460;26.114;2023-04-16T02:19:22;18.92;;;13.90;;
63189;SDS011;49286;44.460;26.114;2023-04-16T02:21:50;22.70;;;15.52;;
63189;SDS011;49286;44.460;26.114;2023-04-16T02:24:16;18.48;;;14.18;;
63189;SDS011;49286;44.460;26.114;2023-04-16T02:26:41;22.88;;;15.68;;
63189;SDS011;49286;44.460;26.114;2023-04-16T02:29:07;22.08;;;14.75;;
63189;SDS011;49286;44.460;26.114;2023-04-16T02:31:33;28.88;;;15.85;;
63189;SDS011;49286;44.460;26.114;2023-04-16T02:33:58;22.20;;;14.20;;
63189;SDS011;49286;44.460;26.114;2023-04-16T02:36:24;18.63;;;13.65;;
63189;SDS011;49286;44.460;26.114;2023-04-16T02:38:49;17.83;;;13.38;;
63189;SDS011;49286;44.460;26.114;2023-04-16T02:41:15;27.38;;;16.10;;
63189;SDS011;49286;44.460;26.114;2023-04-16T02:43:41;22.45;;;14.85;;
63189;SDS011;49286;44.460;26.114;2023-04-16T02:46:06;24.27;;;14.35;;
63189;SDS011;49286;44.460;26.114;2023-04-16T02:48:32;22.98;;;14.55;;
63189;SDS011;49286;44.460;26.114;2023-04-16T02:50:57;21.48;;;14.75;;
63189;SDS011;49286;44.460;26.114;2023-04-16T02:53:23;12.65;;;8.05;;
63189;SDS011;49286;44.460;26.114;2023-04-16T02:55:52;23.92;;;13.18;;
63189;SDS011;49286;44.460;26.114;2023-04-16T02:58:18;22.08;;;13.40;;
63189;SDS011;49286;44.460;26.114;2023-04-16T03:00:45;22.52;;;14.70;;
63189;SDS011;49286;44.460;26.114;2023-04-16T03:03:10;19.80;;;13.05;;
63189;SDS011;49286;44.460;26.114;2023-04-16T03:05:36;12.70;;;7.55;;
63189;SDS011;49286;44.460;26.114;2023-04-16T03:08:02;28.27;;;15.02;;
63189;SDS011;49286;44.460;26.114;2023-04-16T03:10:28;25.08;;;15.30;;
63189;SDS011;49286;44.460;26.114;2023-04-16T03:12:53;25.70;;;14.65;;
63189;SDS011;49286;44.460;26.114;2023-04-16T03:15:19;21.25;;;15.50;;
63189;SDS011;49286;44.460;26.114;2023-04-16T03:17:44;24.98;;;14.18;;
63189;SDS011;49286;44.460;26.114;2023-04-16T03:20:10;20.20;;;14.23;;
63189;SDS011;49286;44.460;26.114;2023-04-16T03:22:37;18.83;;;15.35;;
63189;SDS011;49286;44.460;26.114;2023-04-16T03:25:02;22.98;;;14.75;;
63189;SDS011;49286;44.460;26.114;2023-04-16T03:27:28;23.98;;;15.25;;
63189;SDS011;49286;44.460;26.114;2023-04-16T03:29:54;26.00;;;14.35;;
63189;SDS011;49286;44.460;26.114;2023-04-16T03:32:19;24.50;;;15.10;;
63189;SDS011;49286;44.460;26.114;2023-04-16T03:34:45;21.17;;;16.05;;
63189;SDS011;49286;44.460;26.114;2023-04-16T03:37:10;24.80;;;14.65;;
63189;SDS011;49286;44.460;26.114;2023-04-16T03:39:36;25.27;;;14.52;;
63189;SDS011;49286;44.460;26.114;2023-04-16T03:42:01;22.45;;;15.30;;
63189;SDS011;49286;44.460;26.114;2023-04-16T03:44:27;23.60;;;16.00;;
63189;SDS011;49286;44.460;26.114;2023-04-16T03:46:53;26.00;;;13.75;;
63189;SDS011;49286;44.460;26.114;2023-04-16T03:49:19;20.95;;;15.68;;
63189;SDS011;49286;44.460;26.114;2023-04-16T03:51:45;24.88;;;17.48;;
63189;SDS011;49286;44.460;26.114;2023-04-16T03:54:10;25.52;;;14.80;;
63189;SDS011;49286;44.460;26.114;2023-04-16T03:56:36;27.05;;;14.25;;
63189;SDS011;49286;44.460;26.114;2023-04-16T03:59:03;22.55;;;16.17;;
63189;SDS011;49286;44.460;26.114;2023-04-16T04:01:29;22.05;;;15.30;;
63189;SDS011;49286;44.460;26.114;2023-04-16T04:03:55;22.23;;;14.82;;
63189;SDS011;49286;44.460;26.114;2023-04-16T04:06:20;25.15;;;15.68;;
63189;SDS011;49286;44.460;26.114;2023-04-16T04:08:45;19.38;;;14.70;;
63189;SDS011;49286;44.460;26.114;2023-04-16T04:11:11;20.95;;;14.50;;
63189;SDS011;49286;44.460;26.114;2023-04-16T04:13:36;23.20;;;14.68;;
63189;SDS011;49286;44.460;26.114;2023-04-16T04:16:02;20.80;;;14.50;;
63189;SDS011;49286;44.460;26.114;2023-04-16T04:18:28;20.33;;;14.35;;
63189;SDS011;49286;44.460;26.114;2023-04-16T04:20:53;25.08;;;16.98;;
63189;SDS011;49286;44.460;26.114;2023-04-16T04:23:19;26.42;;;18.27;;
63189;SDS011;49286;44.460;26.114;2023-04-16T04:25:44;21.90;;;15.85;;
63189;SDS011;49286;44.460;26.114;2023-04-16T04:28:10;27.48;;;15.45;;
63189;SDS011;49286;44.460;26.114;2023-04-16T04:30:36;28.73;;;16.30;;
63189;SDS011;49286;44.460;26.114;2023-04-16T04:33:01;21.20;;;14.07;;
63189;SDS011;49286;44.460;26.114;2023-04-16T04:35:27;21.30;;;14.70;;
63189;SDS011;49286;44.460;26.114;2023-04-16T04:37:52;24.48;;;15.68;;
63189;SDS011;49286;44.460;26.114;2023-04-16T04:40:17;29.75;;;16.17;;
63189;SDS011;49286;44.460;26.114;2023-04-16T04:42:43;32.25;;;17.02;;
63189;SDS011;49286;44.460;26.114;2023-04-16T04:45:09;22.98;;;15.50;;
63189;SDS011;49286;44.460;26.114;2023-04-16T04:47:35;23.67;;;15.75;;
63189;SDS011;49286;44.460;26.114;2023-04-16T04:50:00;33.33;;;16.35;;
63189;SDS011;49286;44.460;26.114;2023-04-16T04:52:26;23.75;;;16.83;;
63189;SDS011;49286;44.460;26.114;2023-04-16T04:54:51;24.98;;;16.48;;
63189;SDS011;49286;44.460;26.114;2023-04-16T04:57:17;32.58;;;15.90;;
63189;SDS011;49286;44.460;26.114;2023-04-16T04:59:42;24.05;;;14.50;;
63189;SDS011;49286;44.460;26.114;2023-04-16T05:02:08;20.92;;;15.18;;
63189;SDS011;49286;44.460;26.114;2023-04-16T05:04:33;23.65;;;17.10;;
63189;SDS011;49286;44.460;26.114;2023-04-16T05:06:59;24.48;;;14.80;;
63189;SDS011;49286;44.460;26.114;2023-04-16T05:09:25;24.27;;;15.55;;
63189;SDS011;49286;44.460;26.114;2023-04-16T05:11:51;23.75;;;15.35;;
63189;SDS011;49286;44.460;26.114;2023-04-16T05:14:16;28.08;;;16.23;;
63189;SDS011;49286;44.460;26.114;2023-04-16T05:16:42;22.73;;;15.57;;
63189;SDS011;49286;44.460;26.114;2023-04-16T05:19:07;25.55;;;13.65;;
63189;SDS011;49286;44.460;26.114;2023-04-16T05:21:33;25.60;;;15.65;;
63189;SDS011;49286;44.460;26.114;2023-04-16T05:23:58;24.25;;;17.73;;
63189;SDS011;49286;44.460;26.114;2023-04-16T05:26:24;28.08;;;15.48;;
63189;SDS011;49286;44.460;26.114;2023-04-16T05:28:49;25.27;;;15.85;;
63189;SDS011;49286;44.460;26.114;2023-04-16T05:31:15;23.35;;;15.30;;
63189;SDS011;49286;44.460;26.114;2023-04-16T05:33:40;24.02;;;16.15;;
63189;SDS011;49286;44.460;26.114;2023-04-16T05:36:06;25.90;;;15.40;;
63189;SDS011;49286;44.460;26.114;2023-04-16T05:38:31;21.75;;;15.57;;
63189;SDS011;49286;44.460;26.114;2023-04-16T05:40:57;19.92;;;14.57;;
63189;SDS011;49286;44.460;26.114;2023-04-16T05:43:23;21.38;;;15.45;;
63189;SDS011;49286;44.460;26.114;2023-04-16T05:45:48;18.73;;;14.35;;
63189;SDS011;49286;44.460;26.114;2023-04-16T05:48:14;24.05;;;15.07;;
63189;SDS011;49286;44.460;26.114;2023-04-16T05:50:39;21.83;;;15.43;;
63189;SDS011;49286;44.460;26.114;2023-04-16T05:53:07;27.38;;;14.93;;
63189;SDS011;49286;44.460;26.114;2023-04-16T05:55:34;22.30;;;14.65;;
63189;SDS011;49286;44.460;26.114;2023-04-16T05:58:00;21.17;;;14.23;;
63189;SDS011;49286;44.460;26.114;2023-04-16T06:00:28;18.05;;;12.88;;
63189;SDS011;49286;44.460;26.114;2023-04-16T06:02:54;17.67;;;13.38;;
63189;SDS011;49286;44.460;26.114;2023-04-16T06:05:20;22.70;;;13.50;;
63189;SDS011;49286;44.460;26.114;2023-04-16T06:07:45;22.65;;;11.95;;
63189;SDS011;49286;44.460;26.114;2023-04-16T06:10:11;25.85;;;12.88;;
63189;SDS011;49286;44.460;26.114;2023-04-16T06:12:36;15.98;;;11.50;;
63189;SDS011;49286;44.460;26.114;2023-04-16T06:15:02;19.10;;;12.63;;
63189;SDS011;49286;44.460;26.114;2023-04-16T06:17:28;23.45;;;12.27;;
63189;SDS011;49286;44.460;26.114;2023-04-16T06:19:53;22.35;;;15.02;;
63189;SDS011;49286;44.460;26.114;2023-04-16T06:22:19;20.10;;;14.65;;
63189;SDS011;49286;44.460;26.114;2023-04-16T06:24:45;21.65;;;14.18;;
63189;SDS011;49286;44.460;26.114;2023-04-16T06:27:10;30.67;;;13.73;;
63189;SDS011;49286;44.460;26.114;2023-04-16T06:29:36;19.77;;;12.85;;
63189;SDS011;49286;44.460;26.114;2023-04-16T06:32:01;20.33;;;13.75;;
63189;SDS011;49286;44.460;26.114;2023-04-16T06:34:27;20.38;;;12.55;;
63189;SDS011;49286;44.460;26.114;2023-04-16T06:36:53;15.68;;;11.27;;
63189;SDS011;49286;44.460;26.114;2023-04-16T06:39:19;25.63;;;12.88;;
63189;SDS011;49286;44.460;26.114;2023-04-16T06:41:46;23.20;;;15.60;;
63189;SDS011;49286;44.460;26.114;2023-04-16T06:44:12;22.88;;;12.10;;
63189;SDS011;49286;44.460;26.114;2023-04-16T06:46:38;19.63;;;13.27;;
63189;SDS011;49286;44.460;26.114;2023-04-16T06:49:04;18.00;;;11.80;;
63189;SDS011;49286;44.460;26.114;2023-04-16T06:51:29;20.05;;;13.00;;
63189;SDS011;49286;44.460;26.114;2023-04-16T06:53:55;20.50;;;11.60;;
63189;SDS011;49286;44.460;26.114;2023-04-16T06:56:20;21.45;;;11.40;;
63189;SDS011;49286;44.460;26.114;2023-04-16T06:58:46;19.63;;;10.02;;
63189;SDS011;49286;44.460;26.114;2023-04-16T07:01:11;18.80;;;11.30;;
63189;SDS011;49286;44.460;26.114;2023-04-16T07:03:37;24.83;;;13.20;;
63189;SDS011;49286;44.460;26.114;2023-04-16T07:06:03;24.02;;;12.27;;
63189;SDS011;49286;44.460;26.114;2023-04-16T07:08:28;20.13;;;10.30;;
63189;SDS011;49286;44.460;26.114;2023-04-16T07:10:54;23.25;;;11.07;;
63189;SDS011;49286;44.460;26.114;2023-04-16T07:13:19;20.20;;;10.90;;
63189;SDS011;49286;44.460;26.114;2023-04-16T07:15:45;24.33;;;10.93;;
63189;SDS011;49286;44.460;26.114;2023-04-16T07:18:11;23.65;;;13.38;;
63189;SDS011;49286;44.460;26.114;2023-04-16T07:20:36;19.92;;;10.85;;
63189;SDS011;49286;44.460;26.114;2023-04-16T07:23:02;22.42;;;12.60;;
63189;SDS011;49286;44.460;26.114;2023-04-16T07:25:27;15.73;;;10.55;;
63189;SDS011;49286;44.460;26.114;2023-04-16T07:27:53;19.65;;;11.82;;
63189;SDS011;49286;44.460;26.114;2023-04-16T07:30:18;20.55;;;10.90;;
63189;SDS011;49286;44.460;26.114;2023-04-16T07:32:44;18.33;;;10.98;;
63189;SDS011;49286;44.460;26.114;2023-04-16T07:35:10;24.55;;;12.20;;
63189;SDS011;49286;44.460;26.114;2023-04-16T07:37:35;19.88;;;9.70;;
63189;SDS011;49286;44.460;26.114;2023-04-16T07:40:01;19.20;;;11.63;;
63189;SDS011;49286;44.460;26.114;2023-04-16T07:42:26;26.50;;;12.15;;
63189;SDS011;49286;44.460;26.114;2023-04-16T07:44:52;23.45;;;12.60;;
63189;SDS011;49286;44.460;26.114;2023-04-16T07:47:19;25.33;;;12.30;;
63189;SDS011;49286;44.460;26.114;2023-04-16T07:49:44;21.00;;;10.98;;
63189;SDS011;49286;44.460;26.114;2023-04-16T07:52:10;19.88;;;9.63;;
63189;SDS011;49286;44.460;26.114;2023-04-16T07:54:35;26.02;;;10.95;;
63189;SDS011;49286;44.460;26.114;2023-04-16T07:57:01;32.15;;;11.80;;
63189;SDS011;49286;44.460;26.114;2023-04-16T07:59:26;19.90;;;10.23;;
63189;SDS011;49286;44.460;26.114;2023-04-16T08:01:52;21.30;;;9.50;;
63189;SDS011;49286;44.460;26.114;2023-04-16T08:04:18;34.08;;;13.48;;
63189;SDS011;49286;44.460;26.114;2023-04-16T08:06:48;24.23;;;10.85;;
63189;SDS011;49286;44.460;26.114;2023-04-16T08:09:21;23.80;;;9.70;;
63189;SDS011;49286;44.460;26.114;2023-04-16T08:11:47;22.55;;;9.75;;
63189;SDS011;49286;44.460;26.114;2023-04-16T08:14:14;19.73;;;10.93;;
63189;SDS011;49286;44.460;26.114;2023-04-16T08:16:40;15.73;;;9.75;;
63189;SDS011;49286;44.460;26.114;2023-04-16T08:19:06;21.55;;;10.20;;
63189;SDS011;49286;44.460;26.114;2023-04-16T08:21:32;18.75;;;10.63;;
63189;SDS011;49286;44.460;26.114;2023-04-16T08:23:58;20.00;;;10.48;;
63189;SDS011;49286;44.460;26.114;2023-04-16T08:26:23;19.15;;;9.38;;
63189;SDS011;49286;44.460;26.114;2023-04-16T08:28:48;15.23;;;8.38;;
63189;SDS011;49286;44.460;26.114;2023-04-16T08:31:14;19.70;;;8.45;;
63189;SDS011;49286;44.460;26.114;2023-04-16T08:33:40;29.08;;;10.32;;
63189;SDS011;49286;44.460;26.114;2023-04-16T08:36:05;17.10;;;8.95;;
63189;SDS011;49286;44.460;26.114;2023-04-16T08:38:31;15.30;;;9.05;;
63189;SDS011;49286;44.460;26.114;2023-04-16T08:40:57;34.03;;;11.15;;
63189;SDS011;49286;44.460;26.114;2023-04-16T08:43:30;10.65;;;7.90;;
63189;SDS011;49286;44.460;26.114;2023-04-16T08:45:58;19.10;;;9.55;;
63189;SDS011;49286;44.460;26.114;2023-04-16T08:48:26;12.25;;;8.30;;
63189;SDS011;49286;44.460;26.114;2023-04-16T08:50:56;16.13;;;8.23;;
63189;SDS011;49286;44.460;26.114;2023-04-16T08:53:27;17.95;;;8.98;;
63189;SDS011;49286;44.460;26.114;2023-04-16T08:56:00;21.40;;;9.15;;
63189;SDS011;49286;44.460;26.114;2023-04-16T08:58:29;22.90;;;9.77;;
63189;SDS011;49286;44.460;26.114;2023-04-16T09:00:59;24.48;;;8.98;;
63189;SDS011;49286;44.460;26.114;2023-04-16T09:03:27;18.30;;;9.25;;
63189;SDS011;49286;44.460;26.114;2023-04-16T09:05:53;16.70;;;9.73;;
63189;SDS011;49286;44.460;26.114;2023-04-16T09:08:21;20.83;;;8.35;;
63189;SDS011;49286;44.460;26.114;2023-04-16T09:10:47;21.70;;;9.63;;
63189;SDS011;49286;44.460;26.114;2023-04-16T09:13:13;21.55;;;8.70;;
63189;SDS011;49286;44.460;26.114;2023-04-16T09:15:41;20.52;;;10.13;;
63189;SDS011;49286;44.460;26.114;2023-04-16T09:18:07;20.08;;;9.38;;
63189;SDS011;49286;44.460;26.114;2023-04-16T09:20:33;16.70;;;9.68;;
63189;SDS011;49286;44.460;26.114;2023-04-16T09:22:58;15.60;;;9.10;;
63189;SDS011;49286;44.460;26.114;2023-04-16T09:25:24;20.33;;;8.98;;
63189;SDS011;49286;44.460;26.114;2023-04-16T09:27:50;17.77;;;8.07;;
63189;SDS011;49286;44.460;26.114;2023-04-16T09:32:52;19.88;;;8.80;;
63189;SDS011;49286;44.460;26.114;2023-04-16T09:35:50;16.35;;;9.05;;
63189;SDS011;49286;44.460;26.114;2023-04-16T09:38:17;22.30;;;10.05;;
63189;SDS011;49286;44.460;26.114;2023-04-16T09:40:43;17.20;;;9.68;;
63189;SDS011;49286;44.460;26.114;2023-04-16T09:43:12;21.42;;;11.23;;
63189;SDS011;49286;44.460;26.114;2023-04-16T09:45:48;16.30;;;8.93;;
63189;SDS011;49286;44.460;26.114;2023-04-16T09:48:14;21.05;;;10.38;;
63189;SDS011;49286;44.460;26.114;2023-04-16T09:50:45;16.95;;;10.52;;
63189;SDS011;49286;44.460;26.114;2023-04-16T09:53:19;23.45;;;10.75;;
63189;SDS011;49286;44.460;26.114;2023-04-16T09:55:49;17.13;;;9.50;;
63189;SDS011;49286;44.460;26.114;2023-04-16T09:58:17;14.65;;;9.25;;
63189;SDS011;49286;44.460;26.114;2023-04-16T10:00:43;13.73;;;10.13;;
63189;SDS011;49286;44.460;26.114;2023-04-16T10:03:08;27.10;;;12.43;;
63189;SDS011;49286;44.460;26.114;2023-04-16T10:05:34;18.85;;;10.88;;
63189;SDS011;49286;44.460;26.114;2023-04-16T10:08:00;20.75;;;12.20;;
63189;SDS011;49286;44.460;26.114;2023-04-16T10:10:26;19.60;;;12.38;;
63189;SDS011;49286;44.460;26.114;2023-04-16T10:12:53;17.30;;;13.23;;
63189;SDS011;49286;44.460;26.114;2023-04-16T10:15:20;18.55;;;13.38;;
63189;SDS011;49286;44.460;26.114;2023-04-16T10:17:46;22.42;;;12.73;;
63189;SDS011;49286;44.460;26.114;2023-04-16T10:20:12;19.00;;;13.77;;
63189;SDS011;49286;44.460;26.114;2023-04-16T10:22:39;18.88;;;14.02;;
63189;SDS011;49286;44.460;26.114;2023-04-16T10:25:06;20.27;;;11.98;;
63189;SDS011;49286;44.460;26.114;2023-04-16T10:27:32;15.35;;;13.35;;
63189;SDS011;49286;44.460;26.114;2023-04-16T10:29:58;25.38;;;13.73;;
63189;SDS011;49286;44.460;26.114;2023-04-16T10:32:24;19.80;;;14.45;;
63189;SDS011;49286;44.460;26.114;2023-04-16T10:34:53;26.48;;;15.07;;
63189;SDS011;49286;44.460;26.114;2023-04-16T10:37:27;21.20;;;13.52;;
63189;SDS011;49286;44.460;26.114;2023-04-16T10:39:55;16.67;;;12.80;;
63189;SDS011;49286;44.460;26.114;2023-04-16T10:42:20;25.23;;;13.85;;
63189;SDS011;49286;44.460;26.114;2023-04-16T10:44:46;31.52;;;13.25;;
63189;SDS011;49286;44.460;26.114;2023-04-16T10:47:12;15.15;;;11.70;;
63189;SDS011;49286;44.460;26.114;2023-04-16T10:49:38;18.65;;;12.75;;
63189;SDS011;49286;44.460;26.114;2023-04-16T10:52:14;24.85;;;14.07;;
63189;SDS011;49286;44.460;26.114;2023-04-16T10:54:43;24.00;;;12.32;;
63189;SDS011;49286;44.460;26.114;2023-04-16T10:57:15;26.98;;;12.40;;
63189;SDS011;49286;44.460;26.114;2023-04-16T10:59:42;23.48;;;13.00;;
63189;SDS011;49286;44.460;26.114;2023-04-16T11:02:17;23.65;;;13.18;;
63189;SDS011;49286;44.460;26.114;2023-04-16T11:04:45;23.88;;;12.82;;
63189;SDS011;49286;44.460;26.114;2023-04-16T11:07:16;15.30;;;12.32;;
63189;SDS011;49286;44.460;26.114;2023-04-16T11:12:18;22.42;;;14.40;;
63189;SDS011;49286;44.460;26.114;2023-04-16T11:17:15;20.98;;;15.00;;
63189;SDS011;49286;44.460;26.114;2023-04-16T11:19:41;15.63;;;12.00;;
63189;SDS011;49286;44.460;26.114;2023-04-16T11:22:08;16.83;;;12.98;;
63189;SDS011;49286;44.460;26.114;2023-04-16T11:24:37;16.08;;;12.80;;
63189;SDS011;49286;44.460;26.114;2023-04-16T11:27:04;21.83;;;15.38;;
63189;SDS011;49286;44.460;26.114;2023-04-16T11:29:30;15.27;;;11.73;;
63189;SDS011;49286;44.460;26.114;2023-04-16T11:31:56;14.60;;;9.90;;
63189;SDS011;49286;44.460;26.114;2023-04-16T11:34:21;15.95;;;9.90;;
63189;SDS011;49286;44.460;26.114;2023-04-16T11:36:47;14.63;;;7.28;;
63189;SDS011;49286;44.460;26.114;2023-04-16T11:39:14;15.40;;;8.25;;
63189;SDS011;49286;44.460;26.114;2023-04-16T11:41:47;13.27;;;8.65;;
63189;SDS011;49286;44.460;26.114;2023-04-16T11:44:26;18.90;;;8.95;;
63189;SDS011;49286;44.460;26.114;2023-04-16T11:46:52;13.43;;;7.57;;
63189;SDS011;49286;44.460;26.114;2023-04-16T11:49:30;12.73;;;8.02;;
63189;SDS011;49286;44.460;26.114;2023-04-16T11:51:56;15.82;;;8.88;;
63189;SDS011;49286;44.460;26.114;2023-04-16T11:54:22;17.55;;;10.27;;
63189;SDS011;49286;44.460;26.114;2023-04-16T11:56:49;14.65;;;9.50;;
63189;SDS011;49286;44.460;26.114;2023-04-16T11:59:16;15.70;;;8.45;;
63189;SDS011;49286;44.460;26.114;2023-04-16T12:01:50;16.48;;;9.82;;
63189;SDS011;49286;44.460;26.114;2023-04-16T12:04:20;14.85;;;9.57;;
63189;SDS011;49286;44.460;26.114;2023-04-16T12:09:38;20.60;;;10.25;;
63189;SDS011;49286;44.460;26.114;2023-04-16T12:12:05;16.70;;;9.70;;
63189;SDS011;49286;44.460;26.114;2023-04-16T12:14:31;12.95;;;9.27;;
63189;SDS011;49286;44.460;26.114;2023-04-16T12:19:50;17.33;;;10.45;;
63189;SDS011;49286;44.460;26.114;2023-04-16T12:22:35;10.25;;;8.63;;
63189;SDS011;49286;44.460;26.114;2023-04-16T12:25:03;14.32;;;9.20;;
63189;SDS011;49286;44.460;26.114;2023-04-16T12:30:20;19.35;;;11.23;;
63189;SDS011;49286;44.460;26.114;2023-04-16T12:32:47;29.63;;;10.57;;
63189;SDS011;49286;44.460;26.114;2023-04-16T12:35:30;14.88;;;9.43;;
63189;SDS011;49286;44.460;26.114;2023-04-16T12:37:57;18.13;;;8.82;;
63189;SDS011;49286;44.460;26.114;2023-04-16T12:40:23;14.00;;;8.52;;
63189;SDS011;49286;44.460;26.114;2023-04-16T12:42:49;10.50;;;8.23;;
63189;SDS011;49286;44.460;26.114;2023-04-16T12:45:14;20.70;;;9.27;;
63189;SDS011;49286;44.460;26.114;2023-04-16T12:47:40;10.88;;;9.02;;
63189;SDS011;49286;44.460;26.114;2023-04-16T12:50:06;13.25;;;8.82;;
63189;SDS011;49286;44.460;26.114;2023-04-16T12:52:32;14.05;;;10.00;;
63189;SDS011;49286;44.460;26.114;2023-04-16T12:54:58;15.52;;;10.73;;
63189;SDS011;49286;44.460;26.114;2023-04-16T12:57:26;13.05;;;10.13;;
63189;SDS011;49286;44.460;26.114;2023-04-16T12:59:55;22.63;;;12.05;;
63189;SDS011;49286;44.460;26.114;2023-04-16T13:02:22;15.95;;;7.82;;
63189;SDS011;49286;44.460;26.114;2023-04-16T13:04:51;12.38;;;7.40;;
63189;SDS011;49286;44.460;26.114;2023-04-16T13:07:18;11.07;;;6.10;;
63189;SDS011;49286;44.460;26.114;2023-04-16T13:09:44;13.57;;;5.95;;
63189;SDS011;49286;44.460;26.114;2023-04-16T13:12:10;6.85;;;4.35;;
63189;SDS011;49286;44.460;26.114;2023-04-16T13:14:36;7.88;;;3.97;;
63189;SDS011;49286;44.460;26.114;2023-04-16T13:17:02;10.68;;;4.50;;
63189;SDS011;49286;44.460;26.114;2023-04-16T13:19:28;9.77;;;4.95;;
63189;SDS011;49286;44.460;26.114;2023-04-16T13:21:54;13.52;;;6.07;;
63189;SDS011;49286;44.460;26.114;2023-04-16T13:24:20;7.18;;;3.42;;
63189;SDS011;49286;44.460;26.114;2023-04-16T13:26:47;7.13;;;3.88;;
63189;SDS011;49286;44.460;26.114;2023-04-16T13:29:14;9.05;;;4.18;;
63189;SDS011;49286;44.460;26.114;2023-04-16T13:31:39;6.78;;;4.18;;
63189;SDS011;49286;44.460;26.114;2023-04-16T13:34:05;5.40;;;3.55;;
63189;SDS011;49286;44.460;26.114;2023-04-16T13:36:31;9.52;;;4.55;;
63189;SDS011;49286;44.460;26.114;2023-04-16T13:38:57;8.00;;;3.72;;
63189;SDS011;49286;44.460;26.114;2023-04-16T13:41:23;7.70;;;4.35;;
63189;SDS011;49286;44.460;26.114;2023-04-16T13:43:49;8.57;;;4.47;;
63189;SDS011;49286;44.460;26.114;2023-04-16T13:46:14;9.43;;;5.22;;
63189;SDS011;49286;44.460;26.114;2023-04-16T13:48:40;8.85;;;4.82;;
63189;SDS011;49286;44.460;26.114;2023-04-16T13:51:05;7.65;;;4.85;;
63189;SDS011;49286;44.460;26.114;2023-04-16T13:53:32;10.75;;;5.15;;
63189;SDS011;49286;44.460;26.114;2023-04-16T13:55:58;9.52;;;4.60;;
63189;SDS011;49286;44.460;26.114;2023-04-16T13:58:23;8.07;;;4.10;;
63189;SDS011;49286;44.460;26.114;2023-04-16T14:00:49;9.90;;;5.47;;
63189;SDS011;49286;44.460;26.114;2023-04-16T14:03:14;10.63;;;6.75;;
63189;SDS011;49286;44.460;26.114;2023-04-16T14:05:40;9.90;;;6.90;;
63189;SDS011;49286;44.460;26.114;2023-04-16T14:08:06;14.60;;;7.30;;
63189;SDS011;49286;44.460;26.114;2023-04-16T14:10:31;12.82;;;8.32;;
63189;SDS011;49286;44.460;26.114;2023-04-16T14:12:57;13.50;;;7.93;;
63189;SDS011;49286;44.460;26.114;2023-04-16T14:15:22;10.65;;;8.38;;
63189;SDS011;49286;44.460;26.114;2023-04-16T14:17:50;19.50;;;10.18;;
63189;SDS011;49286;44.460;26.114;2023-04-16T14:20:17;15.13;;;10.25;;
63189;SDS011;49286;44.460;26.114;2023-04-16T14:22:43;15.60;;;11.93;;
63189;SDS011;49286;44.460;26.114;2023-04-16T14:25:10;15.93;;;10.57;;